createdAt,value
2017-01-27T16:10:31.508Z,52.87
2017-01-27T16:11:41.086Z,52.29
2017-01-27T16:12:50.203Z,52.39
2017-01-27T16:14:02.150Z,52.48
2017-01-27T16:15:13.261Z,52.39
2017-01-27T16:16:22.455Z,52.39
2017-01-27T16:17:33.061Z,52.48
2017-01-27T16:18:43.421Z,52.77
2017-01-27T16:19:52.360Z,52.68
2017-01-27T16:21:01.581Z,52.96
2017-01-27T16:22:11.017Z,52.68
2017-01-27T16:23:19.964Z,52.96
2017-01-27T16:24:29.366Z,52.87
2017-01-27T16:25:38.297Z,52.77
2017-01-27T16:26:47.936Z,52.87
2017-01-27T16:27:56.856Z,53.53
2017-01-27T16:29:07.170Z,53.53
2017-01-27T16:30:16.060Z,53.15
2017-01-27T16:31:25.407Z,53.53
2017-01-27T16:32:34.954Z,53.63
2017-01-27T16:33:43.862Z,53.81
2017-01-27T16:34:54.558Z,53.72
2017-01-27T16:36:04.269Z,53.81
2017-01-27T16:37:13.199Z,53.53
2017-01-27T16:38:22.375Z,53.53
2017-01-27T16:39:31.715Z,53.53
2017-01-27T16:40:40.677Z,53.44
2017-01-27T16:41:50.082Z,53.53
2017-01-27T16:43:00.351Z,53.91
2017-01-27T16:44:10.409Z,53.72
2017-01-27T16:45:20.701Z,53.91
2017-01-27T16:46:31.086Z,53.91
2017-01-27T16:47:40.470Z,53.81
2017-01-27T16:48:51.540Z,54
2017-01-27T16:50:02.104Z,53.91
2017-01-27T16:51:12.418Z,53.88
2017-01-27T16:52:21.734Z,54.07
2017-01-27T16:53:31.036Z,53.97
2017-01-27T16:54:41.370Z,54.07
2017-01-27T16:55:51.529Z,53.69
2017-01-27T16:57:02.272Z,53.81
2017-01-27T16:58:11.240Z,53.5
2017-01-27T16:59:20.192Z,53.78
2017-01-27T17:00:30.128Z,53.97
2017-01-27T17:01:41.657Z,53.69
2017-01-27T17:02:52.867Z,54.16
2017-01-27T17:04:01.809Z,54.07
2017-01-27T17:05:13.891Z,54.55
2017-01-27T17:06:23.218Z,54.55
2017-01-27T17:07:32.483Z,54.35
2017-01-27T17:08:41.800Z,54.55
2017-01-27T17:09:50.796Z,54.35
2017-01-27T17:11:01.065Z,54.55
2017-01-27T17:12:10.486Z,54.45
2017-01-27T17:13:20.115Z,54.45
2017-01-27T17:14:29.056Z,54.55
2017-01-27T17:15:38.137Z,54.55
2017-01-27T17:16:49.738Z,54.35
2017-01-27T17:18:01.652Z,54.55
2017-01-27T17:19:12.375Z,54.55
2017-01-27T17:20:23.503Z,54.35
2017-01-27T17:21:32.580Z,54.35
2017-01-27T17:22:41.526Z,54.55
2017-01-27T17:23:51.833Z,54.45
2017-01-27T17:25:01.110Z,54.45
2017-01-27T17:26:13.960Z,54.26
2017-01-27T17:27:22.976Z,53.97
2017-01-27T17:28:32.737Z,54.26
2017-01-27T17:29:42.017Z,54.16
2017-01-27T17:30:52.688Z,54.45
2017-01-27T17:32:01.670Z,54.64
2017-01-27T17:33:11.974Z,54.64
2017-01-27T17:34:22.238Z,54.45
2017-01-27T17:35:31.630Z,54.55
2017-01-27T17:36:43.512Z,54.64
2017-01-27T17:37:52.374Z,54.93
2017-01-27T17:39:05.082Z,54.83
2017-01-27T17:40:15.432Z,54.74
2017-01-27T17:41:25.788Z,54.64
2017-01-27T17:42:37.806Z,54.45
2017-01-27T17:43:46.948Z,54.55
2017-01-27T17:44:55.849Z,54.35
2017-01-27T17:46:05.239Z,55.02
2017-01-27T17:47:16.976Z,54.64
2017-01-27T17:48:28.703Z,54.74
2017-01-27T17:49:38.043Z,54.64
2017-01-27T17:50:48.417Z,54.64
2017-01-27T17:51:58.904Z,54.64
2017-01-27T17:53:09.253Z,55.11
2017-01-27T17:54:20.600Z,55.02
2017-01-27T17:55:29.532Z,55.21
2017-01-27T17:56:39.728Z,54.74
2017-01-27T17:57:49.199Z,55.02
2017-01-27T17:58:58.741Z,54.93
2017-01-27T18:00:09.309Z,55.11
2017-01-27T18:01:18.794Z,55.3
2017-01-27T18:02:29.600Z,55.11
2017-01-27T18:03:38.550Z,55.02
2017-01-27T18:04:47.936Z,55.11
2017-01-27T18:05:58.870Z,54.93
2017-01-27T18:07:07.832Z,55.11
2017-01-27T18:08:16.806Z,55.49
2017-01-27T18:09:25.694Z,55.02
2017-01-27T18:10:35.984Z,55.02
2017-01-27T18:11:45.185Z,55.02
2017-01-27T18:12:54.152Z,55.02
2017-01-27T18:14:03.411Z,55.21
2017-01-27T18:15:12.768Z,55.02
2017-01-27T18:16:24.504Z,55.3
2017-01-27T18:17:35.210Z,55.49
2017-01-27T18:18:44.720Z,55.4
2017-01-27T18:19:55.984Z,55.21
2017-01-27T18:21:06.273Z,55.49
2017-01-27T18:22:17.790Z,55.77
2017-01-27T18:23:29.467Z,55.58
2017-01-27T18:24:39.484Z,55.77
2017-01-27T18:25:50.422Z,55.77
2017-01-27T18:26:59.390Z,55.56
2017-01-27T18:28:08.423Z,55.75
2017-01-27T18:29:17.353Z,55.65
2017-01-27T18:30:26.313Z,56.03
2017-01-27T18:31:38.323Z,55.84
2017-01-27T18:32:48.683Z,56.41
2017-01-27T18:33:57.635Z,56.22
2017-01-27T18:35:07.915Z,55.94
2017-01-27T18:36:17.231Z,56.13
2017-01-27T18:37:29.158Z,56.13
2017-01-27T18:38:39.462Z,56.32
2017-01-27T18:39:48.796Z,56.32
2017-01-27T18:40:59.139Z,56.41
2017-01-27T18:42:08.475Z,56.51
2017-01-27T18:43:19.871Z,56.79
2017-01-27T18:44:28.802Z,56.41
2017-01-27T18:45:38.191Z,56.6
2017-01-27T18:46:47.158Z,56.51
2017-01-27T18:47:56.509Z,56.79
2017-01-27T18:49:07.566Z,56.32
2017-01-27T18:50:16.984Z,56.6
2017-01-27T18:51:30.109Z,56.51
2017-01-27T18:52:40.880Z,56.32
2017-01-27T18:53:52.666Z,56.51
2017-01-27T18:55:04.679Z,56.22
2017-01-27T18:56:15.077Z,56.32
2017-01-27T18:57:24.091Z,56.6
2017-01-27T18:58:35.771Z,56.6
2017-01-27T18:59:47.481Z,56.6
2017-01-27T19:00:57.372Z,56.51
2017-01-27T19:02:09.427Z,56.6
2017-01-27T19:03:20.700Z,56.79
2017-01-27T19:04:33.636Z,56.6
2017-01-27T19:05:46.752Z,56.6
2017-01-27T19:06:56.501Z,57.07
2017-01-27T19:08:05.670Z,56.98
2017-01-27T19:09:16.701Z,56.6
2017-01-27T19:10:26.116Z,56.41
2017-01-27T19:11:38.144Z,56.7
2017-01-27T19:12:49.084Z,56.51
2017-01-27T19:14:01.499Z,56.51
2017-01-27T19:15:12.057Z,56.88
2017-01-27T19:16:23.317Z,56.79
2017-01-27T19:17:35.518Z,56.98
2017-01-27T19:18:47.734Z,57.07
2017-01-27T19:20:01.022Z,57.07
2017-01-27T19:21:10.241Z,56.98
2017-01-27T19:22:24.057Z,57.35
2017-01-27T19:23:33.298Z,57.35
2017-01-27T19:24:44.426Z,57.64
2017-01-27T19:25:55.669Z,57.92
2017-01-27T19:27:11.014Z,57.64
2017-01-27T19:28:25.973Z,57.54
2017-01-27T19:29:40.023Z,57.45
2017-01-27T19:30:52.791Z,57.92
2017-01-27T19:32:08.079Z,57.92
2017-01-27T19:33:27.850Z,57.35
2017-01-27T19:34:41.705Z,57.35
2017-01-27T19:35:52.985Z,57.35
2017-01-27T19:37:05.015Z,57.45
2017-01-27T19:38:17.355Z,57.07
2017-01-27T19:39:32.743Z,56.98
2017-01-27T19:40:46.557Z,57.07
2017-01-27T19:42:04.624Z,57.17
2017-01-27T19:43:16.195Z,57.45
2017-01-27T19:44:29.676Z,57.17
2017-01-27T19:45:46.414Z,57.07
2017-01-27T19:46:57.085Z,57.35
2017-01-27T19:48:09.648Z,57.35
2017-01-27T19:49:22.316Z,57.26
2017-01-27T19:50:36.975Z,57.26
2017-01-27T19:51:51.126Z,57.54
2017-01-27T19:53:02.012Z,57.54
2017-01-27T19:54:13.300Z,57.64
2017-01-27T19:55:22.968Z,57.73
2017-01-27T19:56:33.806Z,57.83
2017-01-27T19:57:47.386Z,57.83
2017-01-27T19:58:59.448Z,57.83
2017-01-27T20:00:10.461Z,57.54
2017-01-27T20:01:22.767Z,57.83
2017-01-27T20:02:37.764Z,57.92
2017-01-27T20:03:48.372Z,57.73
2017-01-27T20:04:58.935Z,58.3
2017-01-27T20:06:09.576Z,58.21
2017-01-27T20:07:19.140Z,58.59
2017-01-27T20:08:28.435Z,58.21
2017-01-27T20:09:39.161Z,58.78
2017-01-27T20:10:50.252Z,58.78
2017-01-27T20:12:01.318Z,58.3
2017-01-27T20:13:12.142Z,58.4
2017-01-27T20:14:21.335Z,58.78
2017-01-27T20:15:31.865Z,58.78
2017-01-27T20:16:43.818Z,58.78
2017-01-27T20:17:54.503Z,58.78
2017-01-27T20:19:06.889Z,58.97
2017-01-27T20:20:17.536Z,59.16
2017-01-27T20:21:28.183Z,58.78
2017-01-27T20:22:40.229Z,58.87
2017-01-27T20:23:51.012Z,58.78
2017-01-27T20:25:01.336Z,58.78
2017-01-27T20:26:12.014Z,58.68
2017-01-27T20:27:25.690Z,58.68
2017-01-27T20:28:36.050Z,58.78
2017-01-27T20:29:47.633Z,58.78
2017-01-27T20:31:00.483Z,58.87
2017-01-27T20:32:11.248Z,58.78
2017-01-27T20:33:21.988Z,58.87
2017-01-27T20:34:35.825Z,58.78
2017-01-27T20:35:45.863Z,58.78
2017-01-27T20:36:56.292Z,59.06
2017-01-27T20:38:09.374Z,58.78
2017-01-27T20:39:19.946Z,58.78
2017-01-27T20:40:29.651Z,58.97
2017-01-27T20:41:39.096Z,59.16
2017-01-27T20:42:52.704Z,59.44
2017-01-27T20:44:03.037Z,59.25
2017-01-27T20:45:12.872Z,59.34
2017-01-27T20:46:26.018Z,59.34
2017-01-27T20:47:35.961Z,59.22
2017-01-27T20:48:49.432Z,59.31
2017-01-27T20:50:01.968Z,59.5
2017-01-27T20:51:13.435Z,59.31
2017-01-27T20:52:24.078Z,59.5
2017-01-27T20:53:35.274Z,59.69
2017-01-27T20:54:46.982Z,59.5
2017-01-27T20:56:00.530Z,59.6
2017-01-27T20:57:12.512Z,59.5
2017-01-27T20:58:22.819Z,59.5
2017-01-27T20:59:34.717Z,59.5
2017-01-27T21:00:46.361Z,59.6
2017-01-27T21:01:59.245Z,60.07
2017-01-27T21:03:08.645Z,60.07
2017-01-27T21:04:19.642Z,59.88
2017-01-27T21:05:31.362Z,59.69
2017-01-27T21:06:42.246Z,59.79
2017-01-27T21:07:51.397Z,60.07
2017-01-27T21:09:01.980Z,59.98
2017-01-27T21:10:11.649Z,60.07
2017-01-27T21:11:20.834Z,60.36
2017-01-27T21:12:31.924Z,60.26
2017-01-27T21:13:43.692Z,60.55
2017-01-27T21:14:53.514Z,61.11
2017-01-27T21:16:05.683Z,60.93
2017-01-27T21:17:16.903Z,60.64
2017-01-27T21:18:26.500Z,60.55
2017-01-27T21:19:35.799Z,60.64
2017-01-27T21:20:46.964Z,60.83
2017-01-27T21:21:56.363Z,60.45
2017-01-27T21:23:06.939Z,60.36
2017-01-27T21:24:19.160Z,60.64
2017-01-27T21:25:30.289Z,60.52
2017-01-27T21:26:44.202Z,60.45
2017-01-27T21:28:03.857Z,60.55
2017-01-27T21:29:14.526Z,60.45
2017-01-27T21:30:26.724Z,60.36
2017-01-27T21:31:40.528Z,60.45
2017-01-27T21:32:51.991Z,60.74
2017-01-27T21:34:03.917Z,61.11
2017-01-27T21:35:15.639Z,60.55
2017-01-27T21:36:25.485Z,60.45
2017-01-27T21:37:36.557Z,60.64
2017-01-27T21:38:48.926Z,60.55
2017-01-27T21:40:01.008Z,60.93
2017-01-27T21:41:13.786Z,60.83
2017-01-27T21:42:27.710Z,60.83
2017-01-27T21:43:37.027Z,61.11
2017-01-27T21:44:50.246Z,60.64
2017-01-27T21:46:02.203Z,60.93
2017-01-27T21:47:13.833Z,60.55
2017-01-27T21:48:24.446Z,61.02
2017-01-27T21:49:33.700Z,60.55
2017-01-27T21:50:43.837Z,61.02
2017-01-27T21:51:53.998Z,60.64
2017-01-27T21:53:05.605Z,60.83
2017-01-27T21:54:17.729Z,60.83
2017-01-27T21:55:29.585Z,60.83
2017-01-27T21:56:39.306Z,60.64
2017-01-27T21:57:48.488Z,61.02
2017-01-27T21:59:08.436Z,61.02
2017-01-27T22:00:30.790Z,61.02
2017-01-27T22:01:44.740Z,61.02
2017-01-27T22:02:57.219Z,60.93
2017-01-27T22:04:09.730Z,61.21
2017-01-27T22:05:21.762Z,60.83
2017-01-27T22:06:33.702Z,60.74
2017-01-27T22:07:47.872Z,61.02
2017-01-27T22:09:01.509Z,60.74
2017-01-27T22:10:15.170Z,60.93
2017-01-27T22:11:30.806Z,60.99
2017-01-27T22:12:50.222Z,61.08
2017-01-27T22:14:06.412Z,61.18
2017-01-27T22:15:28.918Z,61.27
2017-01-27T22:16:44.596Z,61.74
2017-01-27T22:17:56.137Z,61.74
2017-01-27T22:19:23.995Z,61.27
2017-01-27T22:20:34.023Z,61.46
2017-01-27T22:21:45.733Z,61.36
2017-01-27T22:22:56.477Z,61.83
2017-01-27T22:24:09.765Z,61.65
2017-01-27T22:25:25.200Z,61.74
2017-01-27T22:26:37.995Z,62.02
2017-01-27T22:27:48.532Z,61.93
2017-01-27T22:29:04.986Z,61.93
2017-01-27T22:30:16.603Z,61.93
2017-01-27T22:31:32.465Z,61.65
2017-01-27T22:32:54.227Z,61.83
2017-01-27T22:34:09.588Z,61.65
2017-01-27T22:35:23.356Z,61.65
2017-01-27T22:36:36.052Z,61.83
2017-01-27T22:37:48.415Z,61.93
2017-01-27T22:38:58.487Z,62.12
2017-01-27T22:40:08.145Z,62.21
2017-01-27T22:41:21.601Z,61.93
2017-01-27T22:42:33.241Z,61.93
2017-01-27T22:43:46.946Z,61.93
2017-01-27T22:44:56.641Z,61.93
2017-01-27T22:46:09.699Z,62.21
2017-01-27T22:47:22.934Z,62.5
2017-01-27T22:48:38.539Z,62.4
2017-01-27T22:49:49.440Z,62.4
2017-01-27T22:51:00.447Z,62.4
2017-01-27T22:52:12.194Z,62.4
2017-01-27T22:53:22.676Z,62.4
2017-01-27T22:54:32.877Z,62.5
2017-01-27T22:55:44.110Z,62.59
2017-01-27T22:56:56.732Z,62.4
2017-01-27T22:58:07.477Z,62.4
2017-01-27T22:59:18.409Z,62.69
2017-01-27T23:00:30.458Z,62.4
2017-01-27T23:01:41.649Z,62.31
2017-01-27T23:02:55.391Z,62.5
2017-01-27T23:04:06.014Z,63.07
2017-01-27T23:05:21.248Z,63.16
2017-01-27T23:06:32.644Z,63.07
2017-01-27T23:07:43.425Z,63.26
2017-01-27T23:08:58.988Z,63.16
2017-01-27T23:10:10.824Z,63.07
2017-01-27T23:11:20.706Z,63.26
2017-01-27T23:12:32.648Z,63.26
2017-01-27T23:13:51.324Z,62.97
2017-01-27T23:15:02.108Z,63.35
2017-01-27T23:16:14.041Z,62.97
2017-01-27T23:17:25.314Z,62.88
2017-01-27T23:18:35.660Z,62.97
2017-01-27T23:19:47.413Z,62.97
2017-01-27T23:20:56.901Z,63.35
2017-01-27T23:22:06.683Z,62.88
2017-01-27T23:23:17.569Z,63.07
2017-01-27T23:24:29.449Z,63.16
2017-01-27T23:25:40.019Z,62.97
2017-01-27T23:26:50.882Z,63.07
2017-01-27T23:28:00.362Z,63.07
2017-01-27T23:29:09.444Z,63.16
2017-01-27T23:30:18.927Z,63.16
2017-01-27T23:31:28.048Z,62.78
2017-01-27T23:32:37.123Z,63.16
2017-01-27T23:33:47.854Z,62.97
2017-01-27T23:34:58.419Z,63.07
2017-01-27T23:36:08.881Z,63.16
2017-01-27T23:37:19.794Z,62.97
2017-01-27T23:38:30.308Z,62.97
2017-01-27T23:39:40.923Z,63.54
2017-01-27T23:40:51.451Z,63.45
2017-01-27T23:42:00.945Z,63.35
2017-01-27T23:43:10.056Z,62.97
2017-01-27T23:44:19.957Z,62.88
2017-01-27T23:45:29.368Z,62.88
2017-01-27T23:46:38.505Z,62.97
2017-01-27T23:47:47.707Z,63.26
2017-01-27T23:48:57.222Z,63.16
2017-01-27T23:50:09.115Z,63.26
2017-01-27T23:51:18.498Z,63.35
2017-01-27T23:52:28.994Z,63.54
2017-01-27T23:53:40.248Z,63.92
2017-01-27T23:54:49.781Z,63.54
2017-01-27T23:55:59.289Z,63.35
2017-01-27T23:57:10.044Z,63.45
2017-01-27T23:58:21.992Z,63.16
2017-01-27T23:59:31.123Z,63.79
